• pl
  • eng

Awiacja
Komunikaty METAR z lotnisk wojskowych. 09:01 18.11.2018

METAR EPCE 180830Z VRB02KT 4600 BR BKN003 OVC010 04/04
Q1030 RMK 043 098 8/6 =

METAR EPDA 180830Z 04008KT 010V070 9999 -RA OVC011 07/05
Q1031 RMK 072 088 8/8 =

METAR EPDE 180830Z VRB02KT 2800 BR NSC M04/M05 Q1029 RMK M037 093
7/7=

METAR EPIR 180830Z NIL=

METAR EPKS 180830Z 33005KT 3000 BR NSC M02/M03 Q1031 RMK M017 093
7/7=

METAR EPLK 180830Z NIL=

METAR EPLY 180830Z NIL=

METAR EPMB 180830Z 30008KT 2500 BR BKN007 OVC010 04/03 Q1029 REDZ RMK
035 099 8/5=

METAR EPMI 180830Z NIL=

METAR EPMM 180830Z 25005KT 220V280 4000 BR BKN030 BKN070 M03/M04
Q1027 RMK M028 089 7/5=

METAR EPNA 180830Z NIL=

METAR EPOK 180830Z 01012KT 9999 BKN028 08/05
Q1029 RMK 083 078 7/7 =

METAR EPPR 180830Z NIL=

METAR EPPW 180830Z 34004KT 5000 BR BKN080 M00/M04 Q1031 RMK M004 077
7/7=

METAR EPRA 180830Z NIL=

METAR EPSN 180830Z VRB02KT 8000 BKN014 01/00 Q1031 RMK 008 097 7/7=

METAR EPTM 180830Z AUTO /////KT VV105 M02/M05 Q1030 RMK M020 081 ///=
 METAR EPMM
Lokalizacja:EPMM Mińsk Mazowiecki
Czas:08:30 UTC
Średni kierunek wiatru:250 °
Średnia prędkość wiatru:5 węzłów
Kierunek wiatru zmienia się od:220 °
Kierunek wiatru zmienia się do:280 °
Widzialność:4000 metrów
Zjawisko:zamglenie
Pierwsza warstwa chmur:5/8 do 7/8, wysokość podstawy 3000 FT
Druga warstwa chmur:5/8 do 7/8, wysokość podstawy 7000 FT
Temperatura powietrza:-3 °C
Temperatura punktu rosy:-4 °C
Ciśnienie QNH:1027 hPa
Dokładna temperatura powietrza:-2,8 °C
Dokładna wilgotność względna:89 %
Zachmurzenie przez wszystkie piętra chmur:7/8
Zachmurzenie przez chmury niskie:5/8
Awiacja.imgw.pl jest pogodowym serwisem informacyjnym
Instytutu Meteorologii i Gospodarki Wodnej Państwowego Instytutu Badawczego.
Copyright IMGW PIB 2009-2011© Wszelkie prawa zastrzeżone.